sensor_id;sensor_type;location;lat;lon;timestamp;temperature;humidity
3402;DHT22;1714;49.756;8.610;2023-08-12T00:05:08;20.10;1.00
3402;DHT22;1714;49.756;8.610;2023-08-12T00:15:43;20.10;1.00
3402;DHT22;1714;49.756;8.610;2023-08-12T00:26:18;20.10;1.00
3402;DHT22;1714;49.756;8.610;2023-08-12T00:36:53;20.10;1.00
3402;DHT22;1714;49.756;8.610;2023-08-12T00:47:30;20.00;1.00
3402;DHT22;1714;49.756;8.610;2023-08-12T00:58:06;20.10;1.00
3402;DHT22;1714;49.756;8.610;2023-08-12T01:08:41;20.00;1.00
3402;DHT22;1714;49.756;8.610;2023-08-12T01:19:37;20.00;1.00
3402;DHT22;1714;49.756;8.610;2023-08-12T01:30:12;20.00;1.00
3402;DHT22;1714;49.756;8.610;2023-08-12T01:40:49;20.00;1.00
3402;DHT22;1714;49.756;8.610;2023-08-12T01:51:25;20.10;1.00
3402;DHT22;1714;49.756;8.610;2023-08-12T02:02:00;20.10;1.00
3402;DHT22;1714;49.756;8.610;2023-08-12T02:12:35;20.10;1.00
3402;DHT22;1714;49.756;8.610;2023-08-12T02:23:10;20.00;1.00
3402;DHT22;1714;49.756;8.610;2023-08-12T02:33:46;20.00;1.00
3402;DHT22;1714;49.756;8.610;2023-08-12T02:44:21;20.00;1.00
3402;DHT22;1714;49.756;8.610;2023-08-12T02:54:56;19.90;1.00
3402;DHT22;1714;49.756;8.610;2023-08-12T03:05:32;20.10;1.00
3402;DHT22;1714;49.756;8.610;2023-08-12T03:16:12;20.10;1.00
3402;DHT22;1714;49.756;8.610;2023-08-12T03:26:50;20.00;1.00
3402;DHT22;1714;49.756;8.610;2023-08-12T03:37:26;19.90;1.00
3402;DHT22;1714;49.756;8.610;2023-08-12T03:48:03;20.00;1.00
3402;DHT22;1714;49.756;8.610;2023-08-12T03:58:38;20.00;1.00
3402;DHT22;1714;49.756;8.610;2023-08-12T04:09:13;19.90;1.00
3402;DHT22;1714;49.756;8.610;2023-08-12T04:19:49;20.00;1.00
3402;DHT22;1714;49.756;8.610;2023-08-12T04:30:24;20.00;1.00
3402;DHT22;1714;49.756;8.610;2023-08-12T04:40:59;19.90;1.00
3402;DHT22;1714;49.756;8.610;2023-08-12T04:51:34;20.00;1.00
3402;DHT22;1714;49.756;8.610;2023-08-12T05:02:09;20.10;1.00
3402;DHT22;1714;49.756;8.610;2023-08-12T05:12:44;20.10;1.00
3402;DHT22;1714;49.756;8.610;2023-08-12T05:23:21;20.30;1.00
3402;DHT22;1714;49.756;8.610;2023-08-12T05:33:56;20.30;1.00
3402;DHT22;1714;49.756;8.610;2023-08-12T05:44:31;20.30;1.00
3402;DHT22;1714;49.756;8.610;2023-08-12T05:55:06;20.30;1.00
3402;DHT22;1714;49.756;8.610;2023-08-12T06:05:41;20.50;1.00
3402;DHT22;1714;49.756;8.610;2023-08-12T06:16:17;20.80;1.00
3402;DHT22;1714;49.756;8.610;2023-08-12T06:26:52;21.10;1.00
3402;DHT22;1714;49.756;8.610;2023-08-12T06:37:27;21.10;1.00
3402;DHT22;1714;49.756;8.610;2023-08-12T06:48:02;21.20;1.00
3402;DHT22;1714;49.756;8.610;2023-08-12T06:58:37;21.80;1.00
3402;DHT22;1714;49.756;8.610;2023-08-12T07:09:12;22.20;1.00
3402;DHT22;1714;49.756;8.610;2023-08-12T07:19:47;22.50;1.00
3402;DHT22;1714;49.756;8.610;2023-08-12T07:30:22;22.50;1.00
3402;DHT22;1714;49.756;8.610;2023-08-12T07:40:57;22.90;1.00
3402;DHT22;1714;49.756;8.610;2023-08-12T07:51:32;23.80;1.00
3402;DHT22;1714;49.756;8.610;2023-08-12T08:02:07;25.10;1.00
3402;DHT22;1714;49.756;8.610;2023-08-12T08:12:42;24.50;1.00
3402;DHT22;1714;49.756;8.610;2023-08-12T08:23:17;25.30;1.00
3402;DHT22;1714;49.756;8.610;2023-08-12T08:33:52;25.20;1.00
3402;DHT22;1714;49.756;8.610;2023-08-12T08:44:29;25.60;1.00
3402;DHT22;1714;49.756;8.610;2023-08-12T08:55:07;26.70;1.00
3402;DHT22;1714;49.756;8.610;2023-08-12T09:05:42;26.30;1.00
3402;DHT22;1714;49.756;8.610;2023-08-12T09:16:18;26.10;1.00
3402;DHT22;1714;49.756;8.610;2023-08-12T09:26:54;25.80;1.00
3402;DHT22;1714;49.756;8.610;2023-08-12T09:37:30;26.90;1.00
3402;DHT22;1714;49.756;8.610;2023-08-12T09:48:05;27.70;1.00
3402;DHT22;1714;49.756;8.610;2023-08-12T09:58:43;27.90;1.00
3402;DHT22;1714;49.756;8.610;2023-08-12T10:09:19;28.10;1.00
3402;DHT22;1714;49.756;8.610;2023-08-12T10:19:58;27.50;1.00
3402;DHT22;1714;49.756;8.610;2023-08-12T10:30:39;26.60;1.00
3402;DHT22;1714;49.756;8.610;2023-08-12T10:41:21;26.10;1.00
3402;DHT22;1714;49.756;8.610;2023-08-12T10:51:56;25.50;1.00
3402;DHT22;1714;49.756;8.610;2023-08-12T11:02:33;24.90;1.00
3402;DHT22;1714;49.756;8.610;2023-08-12T11:13:09;24.50;1.00
3402;DHT22;1714;49.756;8.610;2023-08-12T11:23:44;23.70;1.00
3402;DHT22;1714;49.756;8.610;2023-08-12T11:34:20;23.30;1.00
3402;DHT22;1714;49.756;8.610;2023-08-12T11:44:55;22.70;1.00
3402;DHT22;1714;49.756;8.610;2023-08-12T11:55:30;22.60;1.00
3402;DHT22;1714;49.756;8.610;2023-08-12T12:06:04;22.20;1.00
3402;DHT22;1714;49.756;8.610;2023-08-12T12:16:45;22.20;1.00
3402;DHT22;1714;49.756;8.610;2023-08-12T12:27:20;22.20;1.00
3402;DHT22;1714;49.756;8.610;2023-08-12T12:37:55;22.20;1.00
3402;DHT22;1714;49.756;8.610;2023-08-12T12:48:30;22.80;1.00
3402;DHT22;1714;49.756;8.610;2023-08-12T12:59:05;23.70;1.00
3402;DHT22;1714;49.756;8.610;2023-08-12T13:09:40;24.90;1.00
3402;DHT22;1714;49.756;8.610;2023-08-12T13:20:16;25.60;1.00
3402;DHT22;1714;49.756;8.610;2023-08-12T13:30:50;25.70;1.00
3402;DHT22;1714;49.756;8.610;2023-08-12T13:41:25;26.50;1.00
3402;DHT22;1714;49.756;8.610;2023-08-12T13:52:00;26.60;1.00
3402;DHT22;1714;49.756;8.610;2023-08-12T14:02:36;27.10;1.00
3402;DHT22;1714;49.756;8.610;2023-08-12T14:13:11;26.90;1.00
3402;DHT22;1714;49.756;8.610;2023-08-12T14:23:46;26.00;1.00
3402;DHT22;1714;49.756;8.610;2023-08-12T14:34:21;26.80;1.00
3402;DHT22;1714;49.756;8.610;2023-08-12T14:44:55;26.60;1.00
3402;DHT22;1714;49.756;8.610;2023-08-12T14:55:30;26.60;1.00
3402;DHT22;1714;49.756;8.610;2023-08-12T15:06:05;25.80;1.00
3402;DHT22;1714;49.756;8.610;2023-08-12T15:16:40;26.30;1.00
3402;DHT22;1714;49.756;8.610;2023-08-12T15:27:15;26.10;1.00
3402;DHT22;1714;49.756;8.610;2023-08-12T15:37:50;25.80;1.00
3402;DHT22;1714;49.756;8.610;2023-08-12T15:48:25;25.30;1.00
3402;DHT22;1714;49.756;8.610;2023-08-12T15:59:00;25.20;1.00
3402;DHT22;1714;49.756;8.610;2023-08-12T16:09:35;25.20;1.00
3402;DHT22;1714;49.756;8.610;2023-08-12T16:20:10;25.20;1.00
3402;DHT22;1714;49.756;8.610;2023-08-12T16:30:47;25.20;1.00
3402;DHT22;1714;49.756;8.610;2023-08-12T16:41:21;24.90;1.00
3402;DHT22;1714;49.756;8.610;2023-08-12T16:51:56;24.90;1.00
3402;DHT22;1714;49.756;8.610;2023-08-12T17:02:31;24.90;1.00
3402;DHT22;1714;49.756;8.610;2023-08-12T17:13:07;24.80;1.00
3402;DHT22;1714;49.756;8.610;2023-08-12T17:23:43;24.70;1.00
3402;DHT22;1714;49.756;8.610;2023-08-12T17:34:18;24.60;1.00
3402;DHT22;1714;49.756;8.610;2023-08-12T17:44:53;24.50;1.00
3402;DHT22;1714;49.756;8.610;2023-08-12T17:55:28;24.50;1.00
3402;DHT22;1714;49.756;8.610;2023-08-12T18:06:03;24.30;1.00
3402;DHT22;1714;49.756;8.610;2023-08-12T18:16:38;24.30;1.00
3402;DHT22;1714;49.756;8.610;2023-08-12T18:27:13;24.20;1.00
3402;DHT22;1714;49.756;8.610;2023-08-12T18:37:48;24.10;1.00
3402;DHT22;1714;49.756;8.610;2023-08-12T18:48:23;24.00;1.00
3402;DHT22;1714;49.756;8.610;2023-08-12T18:58:58;23.90;1.00
3402;DHT22;1714;49.756;8.610;2023-08-12T19:09:33;23.60;1.00
3402;DHT22;1714;49.756;8.610;2023-08-12T19:20:09;23.30;1.00
3402;DHT22;1714;49.756;8.610;2023-08-12T19:30:48;23.20;1.00
3402;DHT22;1714;49.756;8.610;2023-08-12T19:41:24;23.20;1.00
3402;DHT22;1714;49.756;8.610;2023-08-12T19:52:02;23.00;1.00
3402;DHT22;1714;49.756;8.610;2023-08-12T20:02:37;23.00;1.00
3402;DHT22;1714;49.756;8.610;2023-08-12T20:13:14;22.80;1.00
3402;DHT22;1714;49.756;8.610;2023-08-12T20:23:50;22.80;1.00
3402;DHT22;1714;49.756;8.610;2023-08-12T20:34:24;22.70;1.00
3402;DHT22;1714;49.756;8.610;2023-08-12T20:45:00;22.50;1.00
3402;DHT22;1714;49.756;8.610;2023-08-12T20:55:34;22.40;1.00
3402;DHT22;1714;49.756;8.610;2023-08-12T21:06:09;22.30;1.00
3402;DHT22;1714;49.756;8.610;2023-08-12T21:16:44;22.10;1.00
3402;DHT22;1714;49.756;8.610;2023-08-12T21:27:20;21.90;1.00
3402;DHT22;1714;49.756;8.610;2023-08-12T21:37:54;21.70;1.00
3402;DHT22;1714;49.756;8.610;2023-08-12T21:48:29;21.80;1.00
3402;DHT22;1714;49.756;8.610;2023-08-12T21:59:04;21.70;1.00
3402;DHT22;1714;49.756;8.610;2023-08-12T22:09:38;21.60;1.00
3402;DHT22;1714;49.756;8.610;2023-08-12T22:20:13;21.50;1.00
3402;DHT22;1714;49.756;8.610;2023-08-12T22:30:49;21.40;1.00
3402;DHT22;1714;49.756;8.610;2023-08-12T22:41:23;21.40;1.00
3402;DHT22;1714;49.756;8.610;2023-08-12T22:51:59;21.30;1.00
3402;DHT22;1714;49.756;8.610;2023-08-12T23:02:33;21.20;1.00
3402;DHT22;1714;49.756;8.610;2023-08-12T23:13:08;21.20;1.00
3402;DHT22;1714;49.756;8.610;2023-08-12T23:23:44;21.10;1.00
3402;DHT22;1714;49.756;8.610;2023-08-12T23:34:18;21.00;1.00
3402;DHT22;1714;49.756;8.610;2023-08-12T23:44:53;20.90;1.00
3402;DHT22;1714;49.756;8.610;2023-08-12T23:55:28;20.90;1.00
